Time;durP1;ratioP1;P1;durP2;ratioP2;P2;SDS_P1;SDS_P2;PMS_P1;PMS_P2;Temp;Humidity;BMP_temperature;BMP_pressure;BME280_temperature;BME280_humidity;BME280_pressure;Samples;Min_cycle;Max_cycle;Signal;HPM_P1;HPM_P2
2021/12/16 00:08:21;;;;;;;;;;;;;;;16.46;57.06;103455.81;5069662;28;19917;-92
2021/12/16 00:11:00;;;;;;;;;;;;;;;16.75;56.72;103455.84;5055750;28;19948;-92
2021/12/16 00:35:11;;;;;;;;;;;;;;;17.01;55.78;103452.28;5070051;28;19917;-90
2021/12/16 00:37:37;;;;;;;;;;;;;;;17.57;53.39;103451.28;5051666;28;20106;-90
2021/12/16 00:40:03;;;;;;;;;;;;;;;17.89;52.96;103457.50;5051189;28;19977;-91
2021/12/16 00:47:50;;;;;;;;;;;;;;;17.07;55.26;103452.06;5072431;28;19947;-88
2021/12/16 00:54:07;;;;;;;;;;;;;;;16.71;56.67;103459.63;5054953;28;19916;-89
2021/12/16 00:55:54;;;;;;;;;;;;;;;16.89;56.47;103463.63;5072417;28;19988;-89
2021/12/16 00:58:24;;;;;;;;;;;;;;;15.43;62.59;103464.19;5054613;28;19921;-88
2021/12/16 01:00:57;;;;;;;;;;;;;;;17.06;55.75;103466.72;5053665;28;19928;-91
2021/12/16 01:04:22;;;;;;;;;;;;;;;15.99;59.24;103469.06;5055712;28;19901;-89
2021/12/16 01:46:45;;;;;;;;;;;;;;;16.69;54.96;103497.94;5038325;28;20366;-89
2021/12/16 01:54:55;;;;;;;;;;;;;;;16.29;55.18;103519.16;5069844;28;19964;-90
2021/12/16 01:57:32;;;;;;;;;;;;;;;16.02;56.25;103525.38;5051967;28;19921;-89
2021/12/16 02:00:03;;;;;;;;;;;;;;;16.26;55.45;103513.78;5051513;28;20304;-88
2021/12/16 02:02:44;;;;;;;;;;;;;;;16.52;54.40;103524.91;5052947;28;19977;-88
2021/12/16 02:05:22;;;;;;;;;;;;;;;16.73;53.62;103524.25;5053090;28;19917;-90
2021/12/16 02:10:15;;;;;;;;;;;;;;;16.92;52.62;103526.41;5069072;28;19928;-88
2021/12/16 02:12:59;;;;;;;;;;;;;;;16.50;54.16;103527.69;5052733;28;19928;-90
2021/12/16 02:30:02;;;;;;;;;;;;;;;16.94;51.84;103530.00;5064811;28;19951;-91
2021/12/16 02:32:12;;;;;;;;;;;;;;;16.62;53.51;103543.69;5060998;28;19921;-88
2021/12/16 02:35:11;;;;;;;;;;;;;;;16.69;53.82;103548.97;5049719;28;19984;-90
2021/12/16 02:37:35;;;;;;;;;;;;;;;16.87;52.38;103536.63;5055296;28;20370;-91
2021/12/16 02:40:06;;;;;;;;;;;;;;;15.73;57.35;103546.16;5068871;28;19963;-89
2021/12/16 02:42:38;;;;;;;;;;;;;;;16.48;53.73;103533.16;5067828;28;19984;-91
2021/12/16 02:50:16;;;;;;;;;;;;;;;15.58;57.73;103552.94;5068837;28;19982;-89
2021/12/16 02:52:42;;;;;;;;;;;;;;;16.02;55.57;103549.97;5051564;28;19920;-90
2021/12/16 02:55:10;;;;;;;;;;;;;;;15.58;58.30;103552.94;5051589;28;19963;-89
2021/12/16 02:57:43;;;;;;;;;;;;;;;15.36;59.66;103552.56;5051200;28;19917;-89
2021/12/16 03:00:14;;;;;;;;;;;;;;;16.44;54.35;103544.22;5050308;28;19960;-91
2021/12/16 03:02:40;;;;;;;;;;;;;;;16.56;53.79;103543.88;5049573;28;19928;-92
2021/12/16 03:05:07;;;;;;;;;;;;;;;16.65;53.66;103542.69;5048990;28;19913;-89
2021/12/16 03:07:33;;;;;;;;;;;;;;;16.64;52.89;103543.66;5048599;28;19917;-90
2021/12/16 03:14:57;;;;;;;;;;;;;;;15.71;56.98;103543.47;5068123;28;19986;-90
2021/12/16 03:17:39;;;;;;;;;;;;;;;16.21;54.71;103531.25;5050255;28;19924;-90
2021/12/16 03:20:22;;;;;;;;;;;;;;;15.74;56.21;103537.91;5049876;28;19921;-91
2021/12/16 03:25:33;;;;;;;;;;;;;;;16.12;54.84;103541.50;5067916;28;20051;-90
2021/12/16 03:28:25;;;;;;;;;;;;;;;15.54;56.75;103551.19;5068502;28;19989;-91
2021/12/16 03:31:01;;;;;;;;;;;;;;;15.44;58.26;103558.69;5068912;28;19929;-89
2021/12/16 03:38:33;;;;;;;;;;;;;;;16.87;51.79;103545.72;5068570;28;19917;-90
2021/12/16 03:40:59;;;;;;;;;;;;;;;16.43;53.63;103551.53;5050898;28;20015;-91
2021/12/16 03:43:26;;;;;;;;;;;;;;;15.69;56.61;103553.53;5050851;28;19916;-88
2021/12/16 03:48:43;;;;;;;;;;;;;;;17.29;51.02;103550.75;5068620;28;19921;-90
2021/12/16 03:51:21;;;;;;;;;;;;;;;17.08;51.03;103546.88;5049713;28;19917;-89
2021/12/16 03:53:49;;;;;;;;;;;;;;;16.02;54.19;103541.78;5049233;28;19917;-91
2021/12/16 03:56:14;;;;;;;;;;;;;;;16.41;53.35;103544.31;5048882;28;19943;-90
2021/12/16 03:58:40;;;;;;;;;;;;;;;16.60;52.07;103537.38;5050266;28;19917;-89
2021/12/16 04:01:09;;;;;;;;;;;;;;;16.41;53.31;103539.78;5067940;28;19988;-87
2021/12/16 04:03:35;;;;;;;;;;;;;;;16.10;53.87;103542.47;5050741;28;19925;-90
2021/12/16 04:06:00;;;;;;;;;;;;;;;16.23;53.30;103540.28;5051778;28;20011;-89
2021/12/16 04:08:27;;;;;;;;;;;;;;;16.18;53.18;103548.59;5051335;28;20358;-89
2021/12/16 04:11:04;;;;;;;;;;;;;;;16.76;51.16;103554.22;5068430;28;19923;-89
2021/12/16 04:13:29;;;;;;;;;;;;;;;16.76;51.03;103548.75;5049740;28;20058;-90
2021/12/16 04:15:55;;;;;;;;;;;;;;;16.90;50.15;103547.47;5048748;28;19917;-89
2021/12/16 04:18:20;;;;;;;;;;;;;;;16.74;50.94;103552.47;5052932;28;19913;-92
2021/12/16 04:20:46;;;;;;;;;;;;;;;16.85;50.66;103561.25;5053808;28;19922;-88
2021/12/16 04:23:12;;;;;;;;;;;;;;;16.95;49.95;103560.06;5053498;28;19921;-90
2021/12/16 04:25:38;;;;;;;;;;;;;;;17.04;50.10;103560.69;5053477;28;19988;-92
2021/12/16 04:28:10;;;;;;;;;;;;;;;16.50;52.14;103557.75;5053883;28;19980;-89
2021/12/16 04:30:35;;;;;;;;;;;;;;;16.88;51.24;103563.00;5054697;28;19980;-87
2021/12/16 04:33:00;;;;;;;;;;;;;;;17.09;50.46;103559.63;5053560;28;19932;-90
2021/12/16 04:35:25;;;;;;;;;;;;;;;17.03;50.87;103556.16;5056118;28;19916;-88
2021/12/16 04:37:51;;;;;;;;;;;;;;;16.93;51.20;103558.31;5055722;28;19917;-87
2021/12/16 04:40:17;;;;;;;;;;;;;;;17.05;50.63;103557.03;5054913;28;19936;-90
2021/12/16 04:42:44;;;;;;;;;;;;;;;17.20;50.49;103545.59;5053162;28;19923;-91
2021/12/16 04:45:11;;;;;;;;;;;;;;;16.80;51.56;103552.28;5051571;28;19928;-93
2021/12/16 04:47:37;;;;;;;;;;;;;;;17.13;50.65;103555.81;5051488;28;19916;-89
2021/12/16 04:50:03;;;;;;;;;;;;;;;16.74;51.69;103556.09;5051788;28;19939;-92
2021/12/16 04:52:29;;;;;;;;;;;;;;;16.64;52.18;103551.84;5068915;28;20018;-89
2021/12/16 04:54:54;;;;;;;;;;;;;;;16.92;51.21;103556.50;5051951;28;19916;-91
2021/12/16 04:57:19;;;;;;;;;;;;;;;16.89;50.78;103559.34;5051760;28;19920;-88
2021/12/16 04:59:45;;;;;;;;;;;;;;;16.92;51.07;103560.13;5052158;28;19960;-90
2021/12/16 05:02:15;;;;;;;;;;;;;;;16.96;50.76;103564.56;5051883;28;19923;-90
2021/12/16 05:04:41;;;;;;;;;;;;;;;17.29;49.74;103564.44;5050201;28;20333;-91
2021/12/16 05:07:08;;;;;;;;;;;;;;;16.80;51.09;103568.66;5051570;28;19917;-90
2021/12/16 05:12:06;;;;;;;;;;;;;;;16.81;51.92;103568.63;5071178;28;20000;-89
2021/12/16 05:14:31;;;;;;;;;;;;;;;16.85;52.44;103572.19;5052367;28;19952;-91
2021/12/16 05:16:57;;;;;;;;;;;;;;;17.11;51.42;103579.59;5050883;28;19916;-91
2021/12/16 05:19:23;;;;;;;;;;;;;;;17.12;50.80;103583.22;5051426;28;19913;-91
2021/12/16 05:21:55;;;;;;;;;;;;;;;17.16;50.91;103582.19;5051694;28;19917;-87
2021/12/16 05:24:27;;;;;;;;;;;;;;;17.14;50.75;103581.34;5053499;28;19917;-88
2021/12/16 05:26:56;;;;;;;;;;;;;;;17.35;49.77;103587.97;5054605;28;19940;-88
2021/12/16 05:29:23;;;;;;;;;;;;;;;17.32;49.74;103586.22;5053732;28;20019;-89
2021/12/16 05:31:49;;;;;;;;;;;;;;;17.41;49.13;103589.59;5051336;28;19962;-90
2021/12/16 05:34:14;;;;;;;;;;;;;;;17.35;49.34;103583.38;5050264;28;19917;-90
2021/12/16 05:36:40;;;;;;;;;;;;;;;17.57;48.70;103595.47;5050835;28;19908;-93
2021/12/16 05:39:05;;;;;;;;;;;;;;;17.46;48.48;103595.81;5050097;28;19917;-90
2021/12/16 05:41:32;;;;;;;;;;;;;;;17.28;48.54;103597.31;5050699;28;19927;-88
2021/12/16 05:43:57;;;;;;;;;;;;;;;17.38;48.59;103601.56;5049594;28;19917;-90
2021/12/16 05:46:23;;;;;;;;;;;;;;;17.43;48.17;103599.53;5068863;28;19916;-91
2021/12/16 05:48:50;;;;;;;;;;;;;;;17.43;48.03;103596.81;5050130;28;19917;-89
2021/12/16 05:51:17;;;;;;;;;;;;;;;17.33;48.59;103596.22;5049382;28;19921;-88
2021/12/16 05:53:45;;;;;;;;;;;;;;;17.42;48.08;103610.53;5037696;28;19927;-91
2021/12/16 05:56:11;;;;;;;;;;;;;;;17.11;49.34;103612.41;5029758;28;19917;-93
2021/12/16 05:58:41;;;;;;;;;;;;;;;17.18;49.21;103618.59;5028196;28;19917;-91
2021/12/16 06:01:09;;;;;;;;;;;;;;;17.30;48.54;103607.28;5028821;28;19920;-90
2021/12/16 06:03:35;;;;;;;;;;;;;;;17.20;48.52;103608.50;5040508;28;19914;-93
2021/12/16 06:06:01;;;;;;;;;;;;;;;17.12;49.39;103607.84;5046000;28;20342;-91
2021/12/16 06:08:29;;;;;;;;;;;;;;;17.12;48.86;103599.63;5024450;28;19924;-92
2021/12/16 06:13:23;;;;;;;;;;;;;;;16.95;49.18;103609.28;5026914;28;19913;-88
2021/12/16 06:27:02;;;;;;;;;;;;;;;16.96;48.65;103621.09;5037195;28;19939;-91
2021/12/16 06:29:28;;;;;;;;;;;;;;;16.91;49.19;103621.25;5009563;28;19968;-90
2021/12/16 06:31:56;;;;;;;;;;;;;;;16.81;49.43;103633.34;5008746;28;19929;-93
2021/12/16 06:34:24;;;;;;;;;;;;;;;16.79;49.01;103635.25;5009628;28;19906;-93
2021/12/16 06:36:59;;;;;;;;;;;;;;;16.72;49.21;103648.19;5008878;28;19959;-92
2021/12/16 06:39:24;;;;;;;;;;;;;;;16.76;49.09;103649.91;5015474;28;19925;-95
2021/12/16 06:41:50;;;;;;;;;;;;;;;16.71;48.97;103640.91;5027903;28;19924;-94
2021/12/16 06:44:33;;;;;;;;;;;;;;;16.58;49.47;103642.22;5029450;28;19917;-94
2021/12/16 06:47:05;;;;;;;;;;;;;;;16.50;49.82;103649.72;5029404;28;19948;-94
2021/12/16 06:49:35;;;;;;;;;;;;;;;16.78;49.15;103658.06;5028888;28;19952;-91
2021/12/16 06:52:05;;;;;;;;;;;;;;;16.84;48.34;103652.41;5046545;28;19940;-89
2021/12/16 06:54:43;;;;;;;;;;;;;;;16.73;48.59;103649.09;5049205;28;19916;-91
2021/12/16 06:59:41;;;;;;;;;;;;;;;16.86;48.87;103666.91;5063692;28;20382;-92
2021/12/16 07:04:38;;;;;;;;;;;;;;;16.90;48.48;103667.78;5063430;28;19917;-96
2021/12/16 07:07:04;;;;;;;;;;;;;;;16.81;48.44;103664.31;5050181;28;19943;-94
2021/12/16 07:09:30;;;;;;;;;;;;;;;16.87;48.18;103667.88;5046075;28;19917;-93
2021/12/16 07:11:57;;;;;;;;;;;;;;;16.80;48.46;103676.22;5044046;28;19917;-94
2021/12/16 07:14:35;;;;;;;;;;;;;;;16.84;48.76;103674.28;5043050;28;19916;-94
2021/12/16 07:17:01;;;;;;;;;;;;;;;16.73;48.90;103670.97;5041987;28;19917;-94
2021/12/16 07:19:27;;;;;;;;;;;;;;;16.75;48.83;103688.22;5044853;28;20293;-94
2021/12/16 07:21:52;;;;;;;;;;;;;;;16.43;49.84;103690.91;5045181;28;20011;-94
2021/12/16 07:24:19;;;;;;;;;;;;;;;16.25;51.19;103700.47;5042877;28;19990;-93
2021/12/16 07:26:46;;;;;;;;;;;;;;;16.66;49.75;103703.03;5042967;28;19923;-93
2021/12/16 07:29:11;;;;;;;;;;;;;;;16.76;49.25;103693.63;5042376;28;20054;-93
2021/12/16 07:31:38;;;;;;;;;;;;;;;16.51;49.58;103693.41;5042855;28;19948;-93
2021/12/16 07:34:04;;;;;;;;;;;;;;;15.99;51.32;103711.16;5043091;28;19912;-93
2021/12/16 07:36:31;;;;;;;;;;;;;;;16.57;49.35;103717.84;5042539;28;19916;-92
2021/12/16 07:38:56;;;;;;;;;;;;;;;16.67;48.86;103704.84;5043621;28;19920;-95
2021/12/16 07:41:25;;;;;;;;;;;;;;;16.40;49.50;103720.16;5043028;28;19923;-94
2021/12/16 07:44:10;;;;;;;;;;;;;;;16.50;49.74;103728.97;5044206;28;19923;-93
2021/12/16 07:46:50;;;;;;;;;;;;;;;16.61;48.86;103738.69;5047208;28;19920;-93
2021/12/16 07:49:20;;;;;;;;;;;;;;;16.50;49.38;103732.63;5051446;28;19924;-94
2021/12/16 07:51:46;;;;;;;;;;;;;;;16.50;50.17;103732.63;5050048;28;19924;-91
2021/12/16 07:54:12;;;;;;;;;;;;;;;16.41;49.96;103750.16;5052433;28;19917;-92
2021/12/16 07:56:37;;;;;;;;;;;;;;;16.48;49.26;103749.03;5048518;28;19911;-92
2021/12/16 07:59:04;;;;;;;;;;;;;;;16.58;48.67;103746.97;5048748;28;19951;-92
2021/12/16 08:01:30;;;;;;;;;;;;;;;16.64;48.94;103754.13;5065593;28;19936;-92
2021/12/16 08:03:56;;;;;;;;;;;;;;;16.54;49.72;103748.00;5045607;28;19956;-93
2021/12/16 08:06:24;;;;;;;;;;;;;;;16.74;48.49;103749.28;5046416;28;20031;-93
2021/12/16 08:08:52;;;;;;;;;;;;;;;16.38;50.01;103742.03;5047596;28;19917;-92
2021/12/16 08:11:18;;;;;;;;;;;;;;;16.60;49.48;103742.34;5029631;28;20031;-91
2021/12/16 08:13:43;;;;;;;;;;;;;;;16.53;49.54;103757.16;5045964;28;19925;-94
2021/12/16 08:16:08;;;;;;;;;;;;;;;16.68;49.13;103760.41;5046757;28;19917;-93
2021/12/16 08:18:34;;;;;;;;;;;;;;;16.70;49.33;103759.41;5045913;28;19944;-93
2021/12/16 08:21:00;;;;;;;;;;;;;;;16.83;49.10;103765.44;5045526;28;19917;-92
2021/12/16 08:23:37;;;;;;;;;;;;;;;16.56;49.69;103770.72;5045953;28;19932;-96
2021/12/16 08:26:03;;;;;;;;;;;;;;;16.91;48.51;103768.00;5045766;28;19962;-93
2021/12/16 08:28:31;;;;;;;;;;;;;;;16.99;48.55;103765.97;5045400;28;19932;-94
2021/12/16 08:30:56;;;;;;;;;;;;;;;16.98;48.59;103765.06;5054626;28;19925;-94
2021/12/16 08:33:22;;;;;;;;;;;;;;;16.98;48.81;103769.63;5058225;28;19921;-92
2021/12/16 08:35:51;;;;;;;;;;;;;;;16.90;48.72;103769.84;5052634;28;20371;-92
2021/12/16 08:38:20;;;;;;;;;;;;;;;17.20;48.24;103775.38;5054789;28;19932;-95
2021/12/16 08:40:47;;;;;;;;;;;;;;;16.91;49.45;103776.19;5049615;28;19952;-93
2021/12/16 08:43:13;;;;;;;;;;;;;;;17.07;49.06;103779.41;5049291;28;20326;-94
2021/12/16 08:45:41;;;;;;;;;;;;;;;17.33;48.92;103787.78;5048411;28;19916;-94
2021/12/16 08:48:08;;;;;;;;;;;;;;;17.54;48.85;103791.72;5047899;28;19921;-95
2021/12/16 08:50:34;;;;;;;;;;;;;;;17.78;48.82;103797.38;5048821;28;19917;-92
2021/12/16 08:53:00;;;;;;;;;;;;;;;17.79;48.15;103799.16;5045802;28;19967;-93
2021/12/16 08:55:27;;;;;;;;;;;;;;;17.98;48.32;103796.78;5046750;28;19921;-94
2021/12/16 08:57:53;;;;;;;;;;;;;;;18.20;47.46;103807.06;5047568;28;19970;-93
2021/12/16 09:00:22;;;;;;;;;;;;;;;18.19;47.49;103805.25;5049096;28;20373;-94
2021/12/16 09:02:48;;;;;;;;;;;;;;;18.28;48.18;103801.31;5054587;28;19928;-94
2021/12/16 09:05:14;;;;;;;;;;;;;;;18.13;48.57;103809.13;5050281;28;19916;-94
2021/12/16 09:07:40;;;;;;;;;;;;;;;18.23;48.56;103812.44;5052308;28;19921;-93
2021/12/16 09:10:10;;;;;;;;;;;;;;;18.28;48.37;103812.28;5054143;28;19944;-93
2021/12/16 09:12:49;;;;;;;;;;;;;;;18.75;47.95;103810.69;5054056;28;19917;-91
2021/12/16 09:15:14;;;;;;;;;;;;;;;18.50;48.41;103810.63;5051030;28;19932;-93
2021/12/16 09:17:40;;;;;;;;;;;;;;;18.63;48.77;103811.09;5048902;28;20251;-92
2021/12/16 09:20:06;;;;;;;;;;;;;;;18.69;48.62;103809.97;5047809;28;19901;-93
2021/12/16 09:22:31;;;;;;;;;;;;;;;18.44;50.06;103808.09;5045147;28;19956;-92
2021/12/16 09:24:57;;;;;;;;;;;;;;;18.65;49.10;103814.69;5046033;28;20355;-93
2021/12/16 09:27:22;;;;;;;;;;;;;;;18.90;48.99;103816.59;5036739;28;19921;-92
2021/12/16 09:29:48;;;;;;;;;;;;;;;19.04;49.30;103817.00;5045085;28;19932;-92
2021/12/16 09:32:14;;;;;;;;;;;;;;;19.36;48.72;103814.03;5044111;28;19920;-92
2021/12/16 09:34:41;;;;;;;;;;;;;;;19.29;48.85;103811.50;5044071;28;20011;-93
2021/12/16 09:37:06;;;;;;;;;;;;;;;19.07;49.02;103819.63;5044379;28;19901;-94
2021/12/16 09:39:36;;;;;;;;;;;;;;;19.12;49.08;103820.34;5045162;28;19958;-95
2021/12/16 09:42:01;;;;;;;;;;;;;;;18.55;50.77;103821.41;5043586;28;19912;-94
2021/12/16 09:44:29;;;;;;;;;;;;;;;18.17;51.20;103831.81;5045550;28;20011;-95
2021/12/16 09:46:59;;;;;;;;;;;;;;;18.02;52.33;103833.19;5046644;28;19921;-96
2021/12/16 09:49:24;;;;;;;;;;;;;;;18.04;51.72;103828.56;5046295;28;19924;-95
2021/12/16 09:51:51;;;;;;;;;;;;;;;18.48;51.10;103823.50;5048271;28;19924;-94
2021/12/16 09:54:18;;;;;;;;;;;;;;;19.11;51.18;103836.88;5045187;28;19958;-94
2021/12/16 09:56:44;;;;;;;;;;;;;;;18.13;52.48;103838.34;5045214;28;19921;-93
2021/12/16 09:59:12;;;;;;;;;;;;;;;18.81;50.43;103833.34;5045194;28;19928;-93
2021/12/16 10:01:38;;;;;;;;;;;;;;;19.34;50.12;103836.06;5057553;28;19921;-95
2021/12/16 10:04:05;;;;;;;;;;;;;;;19.33;50.57;103839.75;5050921;28;19924;-96
2021/12/16 10:06:32;;;;;;;;;;;;;;;19.70;49.13;103853.91;5047636;28;19923;-94
2021/12/16 10:09:00;;;;;;;;;;;;;;;19.78;49.14;103844.47;5047413;28;19908;-96
2021/12/16 10:11:25;;;;;;;;;;;;;;;18.58;51.05;103846.91;5047601;28;19952;-94
2021/12/16 10:19:06;;;;;;;;;;;;;;;19.81;49.21;103855.34;5063360;28;19924;-95
2021/12/16 10:21:32;;;;;;;;;;;;;;;20.14;49.59;103849.47;5044837;28;19917;-92
2021/12/16 10:24:00;;;;;;;;;;;;;;;19.58;49.16;103858.03;5063186;28;19923;-96
2021/12/16 10:26:27;;;;;;;;;;;;;;;18.40;52.83;103864.88;5047853;28;19917;-96
2021/12/16 10:28:56;;;;;;;;;;;;;;;18.27;52.78;103854.31;5064367;28;19932;-96
2021/12/16 10:31:31;;;;;;;;;;;;;;;18.11;53.65;103859.41;5046040;28;20107;-93
2021/12/16 10:33:58;;;;;;;;;;;;;;;18.17;54.99;103862.84;5045176;28;19921;-90
2021/12/16 10:36:35;;;;;;;;;;;;;;;19.43;52.22;103857.66;5046201;28;19990;-95
2021/12/16 10:39:09;;;;;;;;;;;;;;;20.07;50.66;103861.66;5040327;28;20011;-95
2021/12/16 10:41:36;;;;;;;;;;;;;;;19.93;50.10;103858.53;5044352;28;19920;-93
2021/12/16 10:44:14;;;;;;;;;;;;;;;19.79;49.85;103860.00;5042182;28;19913;-93
2021/12/16 10:46:45;;;;;;;;;;;;;;;19.85;50.66;103866.22;5042141;28;19923;-93
2021/12/16 10:49:12;;;;;;;;;;;;;;;19.72;50.48;103863.91;5043586;28;19913;-93
2021/12/16 10:51:39;;;;;;;;;;;;;;;19.28;51.69;103855.50;5042323;28;19917;-95
2021/12/16 10:54:10;;;;;;;;;;;;;;;19.86;50.47;103859.75;5042709;28;20359;-95
2021/12/16 10:56:38;;;;;;;;;;;;;;;20.16;48.91;103863.16;5028193;28;19917;-94
2021/12/16 10:59:14;;;;;;;;;;;;;;;20.28;49.27;103865.41;5023820;28;20208;-94
2021/12/16 11:01:46;;;;;;;;;;;;;;;20.25;49.60;103860.03;5041078;28;19925;-94
2021/12/16 11:04:32;;;;;;;;;;;;;;;20.88;48.24;103862.91;5046956;28;19917;-96
2021/12/16 11:07:16;;;;;;;;;;;;;;;21.74;46.79;103866.41;5048519;28;19901;-94
2021/12/16 11:10:05;;;;;;;;;;;;;;;21.31;45.66;103865.59;5048442;28;19921;-95
2021/12/16 11:12:36;;;;;;;;;;;;;;;20.25;48.21;103857.28;5043289;28;19968;-96
2021/12/16 11:15:12;;;;;;;;;;;;;;;20.72;48.27;103856.28;5042829;28;19920;-96
2021/12/16 11:17:44;;;;;;;;;;;;;;;19.87;49.26;103856.97;5041868;28;19923;-95
2021/12/16 11:20:12;;;;;;;;;;;;;;;20.46;47.94;103851.84;5041258;28;19921;-95
2021/12/16 11:22:39;;;;;;;;;;;;;;;19.21;49.85;103867.66;5041552;28;19904;-95
2021/12/16 11:25:12;;;;;;;;;;;;;;;19.86;50.03;103859.75;5041616;28;19924;-95
2021/12/16 11:27:37;;;;;;;;;;;;;;;20.83;47.67;103848.44;5041186;28;19980;-95
2021/12/16 11:30:23;;;;;;;;;;;;;;;19.99;49.50;103855.59;5041750;28;20355;-96
2021/12/16 11:32:50;;;;;;;;;;;;;;;20.73;48.08;103848.91;5043961;28;19917;-94
2021/12/16 11:35:31;;;;;;;;;;;;;;;20.36;48.50;103848.56;5043374;28;19917;-93
2021/12/16 11:37:59;;;;;;;;;;;;;;;20.92;47.18;103852.66;5058173;28;19913;-94
2021/12/16 11:40:24;;;;;;;;;;;;;;;21.23;46.49;103846.69;5058772;28;19917;-93
2021/12/16 11:43:01;;;;;;;;;;;;;;;21.82;45.24;103849.53;5044852;28;19920;-96
2021/12/16 11:45:34;;;;;;;;;;;;;;;21.60;44.93;103849.63;5043882;28;19920;-95
2021/12/16 11:48:00;;;;;;;;;;;;;;;21.94;44.28;103843.41;5041799;28;19917;-95
2021/12/16 11:50:31;;;;;;;;;;;;;;;21.92;44.03;103845.34;5041571;28;20337;-95
2021/12/16 11:52:57;;;;;;;;;;;;;;;21.54;45.02;103844.41;5041650;28;19922;-94
2021/12/16 11:55:23;;;;;;;;;;;;;;;21.70;44.26;103844.59;5042512;28;19924;-94
2021/12/16 11:57:51;;;;;;;;;;;;;;;21.53;44.58;103839.84;5042051;28;19909;-95
2021/12/16 12:00:16;;;;;;;;;;;;;;;21.90;43.61;103825.22;5041151;28;19925;-95
2021/12/16 12:02:43;;;;;;;;;;;;;;;21.68;43.52;103835.47;5040744;28;19916;-95
2021/12/16 12:05:19;;;;;;;;;;;;;;;22.01;43.07;103833.00;5040752;28;19917;-94
2021/12/16 12:07:46;;;;;;;;;;;;;;;22.34;43.10;103836.94;5041627;28;19920;-94
2021/12/16 12:10:12;;;;;;;;;;;;;;;21.91;43.27;103835.28;5041388;28;20255;-94
2021/12/16 12:12:42;;;;;;;;;;;;;;;22.51;42.28;103823.19;5041436;28;19932;-94
2021/12/16 12:15:09;;;;;;;;;;;;;;;22.13;42.65;103835.16;5042022;28;20074;-94
2021/12/16 12:17:52;;;;;;;;;;;;;;;22.06;42.22;103827.25;5041645;28;19968;-94
2021/12/16 12:20:18;;;;;;;;;;;;;;;21.53;44.33;103831.59;5042363;28;20027;-94
2021/12/16 12:22:48;;;;;;;;;;;;;;;21.57;43.33;103830.50;5044216;28;19913;-94
2021/12/16 12:25:13;;;;;;;;;;;;;;;21.11;44.28;103832.59;5048404;28;19917;-94
2021/12/16 12:27:39;;;;;;;;;;;;;;;21.23;44.04;103821.91;5050951;28;20333;-93
2021/12/16 12:30:07;;;;;;;;;;;;;;;20.87;45.08;103830.84;5049315;28;20390;-93
2021/12/16 12:32:34;;;;;;;;;;;;;;;20.85;44.31;103832.78;5042967;28;19921;-94
2021/12/16 12:34:59;;;;;;;;;;;;;;;20.89;44.75;103837.19;5047067;28;20016;-93
2021/12/16 12:37:27;;;;;;;;;;;;;;;20.78;45.65;103827.59;5045217;28;19960;-95
2021/12/16 12:39:54;;;;;;;;;;;;;;;21.17;44.82;103832.31;5052024;28;19912;-94
2021/12/16 12:42:21;;;;;;;;;;;;;;;20.37;46.11;103828.38;5049977;28;19917;-93
2021/12/16 12:44:46;;;;;;;;;;;;;;;19.65;47.92;103830.25;5046480;28;19908;-94
2021/12/16 12:47:13;;;;;;;;;;;;;;;19.87;46.44;103839.56;5046413;28;19917;-93
2021/12/16 12:49:39;;;;;;;;;;;;;;;19.17;48.45;103827.53;5051895;28;19917;-92
2021/12/16 12:52:16;;;;;;;;;;;;;;;20.15;45.99;103832.00;5048476;28;19917;-92
2021/12/16 12:54:44;;;;;;;;;;;;;;;20.21;46.11;103832.72;5055377;28;19917;-93
2021/12/16 12:57:29;;;;;;;;;;;;;;;20.21;46.34;103838.22;5048492;28;19921;-92
2021/12/16 12:59:55;;;;;;;;;;;;;;;20.65;44.96;103835.44;5045084;28;19924;-92
2021/12/16 13:02:29;;;;;;;;;;;;;;;20.77;44.77;103837.69;5046309;28;19979;-92
2021/12/16 13:04:57;;;;;;;;;;;;;;;20.18;45.80;103836.47;5045023;28;19927;-92
2021/12/16 13:07:35;;;;;;;;;;;;;;;20.88;45.05;103832.63;5045200;28;19917;-92
2021/12/16 13:10:09;;;;;;;;;;;;;;;21.02;44.59;103826.50;5044723;28;19917;-92
2021/12/16 13:12:40;;;;;;;;;;;;;;;20.48;45.91;103827.94;5045203;28;19920;-91
2021/12/16 13:15:19;;;;;;;;;;;;;;;20.60;45.36;103830.16;5046231;28;20442;-91
2021/12/16 13:31:07;;;;;;;;;;;;;;;20.30;45.29;103829.59;5065190;28;19925;-91
2021/12/16 13:33:43;;;;;;;;;;;;;;;20.85;44.47;103829.13;5048970;28;19901;-92
2021/12/16 13:36:26;;;;;;;;;;;;;;;20.64;44.67;103830.94;5034176;28;19924;-92
2021/12/16 13:38:52;;;;;;;;;;;;;;;20.40;45.38;103836.50;5043693;28;19967;-92
2021/12/16 13:41:19;;;;;;;;;;;;;;;19.44;46.79;103831.97;5045350;28;19916;-91
2021/12/16 13:43:55;;;;;;;;;;;;;;;19.65;46.92;103834.88;5044513;28;19932;-88
2021/12/16 13:46:32;;;;;;;;;;;;;;;19.75;46.42;103832.69;5022646;28;19975;-90
2021/12/16 13:59:35;;;;;;;;;;;;;;;20.54;44.84;103825.78;5048132;28;19919;-91
2021/12/16 14:03:51;;;;;;;;;;;;;;;19.72;46.56;103836.44;5061784;28;19917;-91
2021/12/16 14:06:32;;;;;;;;;;;;;;;20.22;45.11;103834.53;5044475;28;19916;-92
2021/12/16 14:09:11;;;;;;;;;;;;;;;20.39;44.78;103844.81;5044039;28;20335;-92
2021/12/16 14:14:25;;;;;;;;;;;;;;;20.57;44.78;103862.41;5061654;28;20007;-94
2021/12/16 14:17:17;;;;;;;;;;;;;;;20.74;44.12;103853.47;5044078;28;19928;-91
2021/12/16 14:41:45;;;;;;;;;;;;;;;20.26;44.62;103849.91;5053555;28;19959;-88
2021/12/16 14:46:45;;;;;;;;;;;;;;;20.08;45.28;103860.72;5060634;28;19950;-91
2021/12/16 14:49:12;;;;;;;;;;;;;;;20.51;44.06;103869.94;5041783;28;19917;-91
2021/12/16 14:51:37;;;;;;;;;;;;;;;20.69;43.46;103867.41;5042158;28;19929;-91
2021/12/16 14:54:03;;;;;;;;;;;;;;;20.75;43.51;103875.41;5042546;28;19917;-92
2021/12/16 14:56:33;;;;;;;;;;;;;;;20.60;43.69;103874.16;5042583;28;20000;-92
2021/12/16 14:59:12;;;;;;;;;;;;;;;20.63;43.61;103876.78;5042719;28;19924;-91
2021/12/16 15:01:39;;;;;;;;;;;;;;;20.58;43.79;103880.66;5041071;28;19909;-90
2021/12/16 15:04:06;;;;;;;;;;;;;;;20.65;43.81;103877.66;5041722;28;19928;-91
2021/12/16 15:06:42;;;;;;;;;;;;;;;20.67;43.68;103881.22;5042204;28;19940;-92
2021/12/16 15:09:26;;;;;;;;;;;;;;;20.41;44.28;103878.63;5042495;28;19928;-90
2021/12/16 15:12:05;;;;;;;;;;;;;;;20.39;44.23;103886.06;5042481;28;20007;-95
2021/12/16 15:39:38;;;;;;;;;;;;;;;19.42;45.52;103909.88;5058638;28;19928;-90
2021/12/16 15:44:54;;;;;;;;;;;;;;;19.48;45.17;103910.56;5037608;28;19982;-95
2021/12/16 15:47:25;;;;;;;;;;;;;;;19.35;45.27;103922.94;5066464;28;19970;-93
2021/12/16 15:49:51;;;;;;;;;;;;;;;19.31;45.39;103924.00;5046407;28;19927;-96
2021/12/16 15:52:17;;;;;;;;;;;;;;;19.25;45.92;103914.13;5041660;28;20023;-93
2021/12/16 15:54:47;;;;;;;;;;;;;;;19.20;45.87;103931.72;5042120;28;20366;-93
2021/12/16 15:57:15;;;;;;;;;;;;;;;19.19;45.60;103925.34;5042143;28;19917;-94
2021/12/16 15:59:44;;;;;;;;;;;;;;;19.13;45.76;103918.22;5040473;28;19925;-92
2021/12/16 16:02:09;;;;;;;;;;;;;;;19.24;45.86;103930.66;5041683;28;20446;-92
2021/12/16 16:04:38;;;;;;;;;;;;;;;19.05;46.00;103925.81;5043732;28;19956;-94
2021/12/16 16:07:07;;;;;;;;;;;;;;;18.98;46.17;103931.53;5044412;28;19920;-95
2021/12/16 16:09:40;;;;;;;;;;;;;;;18.77;46.60;103934.94;5043093;28;19917;-94
2021/12/16 16:22:04;;;;;;;;;;;;;;;18.48;47.05;103945.94;4973716;28;19926;-94
2021/12/16 16:27:12;;;;;;;;;;;;;;;18.52;46.92;103958.63;5527932;23;20302;-93
2021/12/16 16:29:39;;;;;;;;;;;;;;;18.56;46.84;103963.94;5046926;28;19929;-90
2021/12/16 16:32:05;;;;;;;;;;;;;;;18.58;46.54;103966.63;5045323;28;19917;-93
2021/12/16 16:34:51;;;;;;;;;;;;;;;18.18;47.46;103963.28;5044595;28;19927;-94
2021/12/16 16:37:40;;;;;;;;;;;;;;;17.86;48.91;103983.38;5040332;28;19947;-93
2021/12/16 16:40:13;;;;;;;;;;;;;;;18.23;47.40;103976.84;5040910;28;19924;-95
2021/12/16 16:42:42;;;;;;;;;;;;;;;18.15;47.61;103973.47;5045674;28;19921;-94
2021/12/16 16:45:30;;;;;;;;;;;;;;;17.83;48.68;103969.75;5050233;28;20585;-92
2021/12/16 16:48:05;;;;;;;;;;;;;;;17.91;48.88;103965.00;5038354;28;19917;-92